sensor_id;sensor_type;location;lat;lon;timestamp;P1;durP1;ratioP1;P2;durP2;ratioP2
30307;SDS011;17114;52.314;8.910;2022-09-29T00:00:20;33.67;;;20.58;;
30307;SDS011;17114;52.314;8.910;2022-09-29T00:02:47;37.55;;;22.10;;
30307;SDS011;17114;52.314;8.910;2022-09-29T00:05:14;35.95;;;22.33;;
30307;SDS011;17114;52.314;8.910;2022-09-29T00:07:41;34.20;;;21.75;;
30307;SDS011;17114;52.314;8.910;2022-09-29T00:10:08;34.38;;;21.40;;
30307;SDS011;17114;52.314;8.910;2022-09-29T00:12:35;38.15;;;22.85;;
30307;SDS011;17114;52.314;8.910;2022-09-29T00:15:02;43.60;;;24.05;;
30307;SDS011;17114;52.314;8.910;2022-09-29T00:17:30;41.33;;;25.55;;
30307;SDS011;17114;52.314;8.910;2022-09-29T00:19:57;48.05;;;25.95;;
30307;SDS011;17114;52.314;8.910;2022-09-29T00:22:24;44.38;;;27.02;;
30307;SDS011;17114;52.314;8.910;2022-09-29T00:24:50;47.25;;;27.70;;
30307;SDS011;17114;52.314;8.910;2022-09-29T00:27:17;49.42;;;29.98;;
30307;SDS011;17114;52.314;8.910;2022-09-29T00:29:45;60.78;;;31.73;;
30307;SDS011;17114;52.314;8.910;2022-09-29T00:32:11;57.05;;;31.13;;
30307;SDS011;17114;52.314;8.910;2022-09-29T00:34:38;53.72;;;30.98;;
30307;SDS011;17114;52.314;8.910;2022-09-29T00:37:05;53.42;;;32.45;;
30307;SDS011;17114;52.314;8.910;2022-09-29T00:39:32;54.20;;;33.25;;
30307;SDS011;17114;52.314;8.910;2022-09-29T00:41:59;58.20;;;33.00;;
30307;SDS011;17114;52.314;8.910;2022-09-29T00:47:30;54.70;;;33.15;;
30307;SDS011;17114;52.314;8.910;2022-09-29T00:50:04;57.20;;;32.78;;
30307;SDS011;17114;52.314;8.910;2022-09-29T00:52:41;56.97;;;33.13;;
30307;SDS011;17114;52.314;8.910;2022-09-29T00:55:14;54.67;;;32.60;;
30307;SDS011;17114;52.314;8.910;2022-09-29T00:57:48;43.53;;;23.47;;
30307;SDS011;17114;52.314;8.910;2022-09-29T01:00:19;53.42;;;31.63;;
30307;SDS011;17114;52.314;8.910;2022-09-29T01:02:54;53.67;;;31.42;;
30307;SDS011;17114;52.314;8.910;2022-09-29T01:05:37;46.95;;;29.88;;
30307;SDS011;17114;52.314;8.910;2022-09-29T01:08:10;49.13;;;31.38;;
30307;SDS011;17114;52.314;8.910;2022-09-29T01:10:53;48.22;;;30.00;;
30307;SDS011;17114;52.314;8.910;2022-09-29T01:13:22;51.30;;;30.50;;
30307;SDS011;17114;52.314;8.910;2022-09-29T01:15:50;51.25;;;30.27;;
30307;SDS011;17114;52.314;8.910;2022-09-29T01:18:16;54.45;;;31.45;;
30307;SDS011;17114;52.314;8.910;2022-09-29T01:20:48;51.53;;;31.40;;
30307;SDS011;17114;52.314;8.910;2022-09-29T01:30:18;48.25;;;29.58;;
30307;SDS011;17114;52.314;8.910;2022-09-29T01:41:54;31.23;;;20.30;;
30307;SDS011;17114;52.314;8.910;2022-09-29T01:47:09;42.53;;;27.52;;
30307;SDS011;17114;52.314;8.910;2022-09-29T01:49:41;45.30;;;27.50;;
30307;SDS011;17114;52.314;8.910;2022-09-29T01:52:14;42.65;;;27.13;;
30307;SDS011;17114;52.314;8.910;2022-09-29T01:54:51;31.93;;;20.40;;
30307;SDS011;17114;52.314;8.910;2022-09-29T01:57:42;40.00;;;25.10;;
30307;SDS011;17114;52.314;8.910;2022-09-29T02:00:18;32.53;;;22.05;;
30307;SDS011;17114;52.314;8.910;2022-09-29T02:02:53;37.22;;;22.48;;
30307;SDS011;17114;52.314;8.910;2022-09-29T02:08:12;32.72;;;22.17;;
30307;SDS011;17114;52.314;8.910;2022-09-29T02:11:04;30.42;;;20.25;;
30307;SDS011;17114;52.314;8.910;2022-09-29T02:13:30;27.85;;;19.60;;
30307;SDS011;17114;52.314;8.910;2022-09-29T02:16:02;28.23;;;19.80;;
30307;SDS011;17114;52.314;8.910;2022-09-29T02:18:31;28.80;;;19.77;;
30307;SDS011;17114;52.314;8.910;2022-09-29T02:21:05;35.30;;;22.63;;
30307;SDS011;17114;52.314;8.910;2022-09-29T02:23:34;33.47;;;21.95;;
30307;SDS011;17114;52.314;8.910;2022-09-29T02:26:01;34.83;;;23.23;;
30307;SDS011;17114;52.314;8.910;2022-09-29T02:28:28;35.35;;;24.08;;
30307;SDS011;17114;52.314;8.910;2022-09-29T02:30:55;43.65;;;25.65;;
30307;SDS011;17114;52.314;8.910;2022-09-29T02:33:23;32.17;;;21.98;;
30307;SDS011;17114;52.314;8.910;2022-09-29T02:35:55;39.17;;;24.63;;
30307;SDS011;17114;52.314;8.910;2022-09-29T02:41:32;31.77;;;20.95;;
30307;SDS011;17114;52.314;8.910;2022-09-29T02:51:49;27.30;;;17.63;;
30307;SDS011;17114;52.314;8.910;2022-09-29T02:57:30;31.17;;;19.75;;
30307;SDS011;17114;52.314;8.910;2022-09-29T03:00:16;31.20;;;19.50;;
30307;SDS011;17114;52.314;8.910;2022-09-29T03:02:44;30.40;;;19.13;;
30307;SDS011;17114;52.314;8.910;2022-09-29T03:05:12;34.10;;;21.73;;
30307;SDS011;17114;52.314;8.910;2022-09-29T03:07:41;29.75;;;18.63;;
30307;SDS011;17114;52.314;8.910;2022-09-29T03:10:09;28.98;;;19.77;;
30307;SDS011;17114;52.314;8.910;2022-09-29T03:12:38;27.50;;;18.80;;
30307;SDS011;17114;52.314;8.910;2022-09-29T03:15:05;30.00;;;19.70;;
30307;SDS011;17114;52.314;8.910;2022-09-29T03:17:33;28.75;;;18.90;;
30307;SDS011;17114;52.314;8.910;2022-09-29T03:20:01;30.10;;;19.63;;
30307;SDS011;17114;52.314;8.910;2022-09-29T03:22:28;32.80;;;21.05;;
30307;SDS011;17114;52.314;8.910;2022-09-29T03:24:54;34.95;;;21.13;;
30307;SDS011;17114;52.314;8.910;2022-09-29T03:27:21;37.22;;;23.73;;
30307;SDS011;17114;52.314;8.910;2022-09-29T03:29:48;43.20;;;27.63;;
30307;SDS011;17114;52.314;8.910;2022-09-29T03:32:16;44.65;;;26.48;;
30307;SDS011;17114;52.314;8.910;2022-09-29T03:34:43;47.72;;;29.75;;
30307;SDS011;17114;52.314;8.910;2022-09-29T03:37:10;51.80;;;31.05;;
30307;SDS011;17114;52.314;8.910;2022-09-29T03:39:37;59.05;;;33.80;;
30307;SDS011;17114;52.314;8.910;2022-09-29T03:42:04;58.10;;;33.55;;
30307;SDS011;17114;52.314;8.910;2022-09-29T03:44:31;55.15;;;33.92;;
30307;SDS011;17114;52.314;8.910;2022-09-29T03:46:58;66.90;;;36.55;;
30307;SDS011;17114;52.314;8.910;2022-09-29T03:49:25;64.57;;;35.45;;
30307;SDS011;17114;52.314;8.910;2022-09-29T03:51:52;66.50;;;36.30;;
30307;SDS011;17114;52.314;8.910;2022-09-29T03:54:19;62.47;;;36.22;;
30307;SDS011;17114;52.314;8.910;2022-09-29T03:56:46;61.33;;;35.15;;
30307;SDS011;17114;52.314;8.910;2022-09-29T03:59:13;63.63;;;35.25;;
30307;SDS011;17114;52.314;8.910;2022-09-29T04:01:40;59.22;;;33.65;;
30307;SDS011;17114;52.314;8.910;2022-09-29T04:04:08;61.53;;;33.90;;
30307;SDS011;17114;52.314;8.910;2022-09-29T04:06:35;60.70;;;34.33;;
30307;SDS011;17114;52.314;8.910;2022-09-29T04:09:02;55.72;;;33.33;;
30307;SDS011;17114;52.314;8.910;2022-09-29T04:11:29;55.30;;;33.33;;
30307;SDS011;17114;52.314;8.910;2022-09-29T04:13:56;65.38;;;36.35;;
30307;SDS011;17114;52.314;8.910;2022-09-29T04:16:23;67.00;;;36.42;;
30307;SDS011;17114;52.314;8.910;2022-09-29T04:18:50;65.50;;;37.40;;
30307;SDS011;17114;52.314;8.910;2022-09-29T04:21:17;67.03;;;37.30;;
30307;SDS011;17114;52.314;8.910;2022-09-29T04:23:44;60.53;;;34.58;;
30307;SDS011;17114;52.314;8.910;2022-09-29T04:26:12;60.70;;;34.67;;
30307;SDS011;17114;52.314;8.910;2022-09-29T04:28:39;56.97;;;32.85;;
30307;SDS011;17114;52.314;8.910;2022-09-29T04:31:06;56.38;;;32.40;;
30307;SDS011;17114;52.314;8.910;2022-09-29T04:33:33;59.03;;;33.75;;
30307;SDS011;17114;52.314;8.910;2022-09-29T04:36:00;53.53;;;31.55;;
30307;SDS011;17114;52.314;8.910;2022-09-29T04:38:27;53.25;;;30.88;;
30307;SDS011;17114;52.314;8.910;2022-09-29T04:40:54;55.30;;;29.38;;
30307;SDS011;17114;52.314;8.910;2022-09-29T04:43:21;48.63;;;28.10;;
30307;SDS011;17114;52.314;8.910;2022-09-29T04:45:48;45.83;;;28.05;;
30307;SDS011;17114;52.314;8.910;2022-09-29T04:48:15;43.70;;;26.63;;
30307;SDS011;17114;52.314;8.910;2022-09-29T04:50:42;43.75;;;26.85;;
30307;SDS011;17114;52.314;8.910;2022-09-29T04:53:09;39.78;;;24.40;;
30307;SDS011;17114;52.314;8.910;2022-09-29T04:55:37;40.55;;;24.70;;
30307;SDS011;17114;52.314;8.910;2022-09-29T04:58:04;40.10;;;23.75;;
30307;SDS011;17114;52.314;8.910;2022-09-29T05:00:31;42.25;;;24.63;;
30307;SDS011;17114;52.314;8.910;2022-09-29T05:02:58;39.25;;;24.17;;
30307;SDS011;17114;52.314;8.910;2022-09-29T05:05:26;41.67;;;25.27;;
30307;SDS011;17114;52.314;8.910;2022-09-29T05:07:53;41.78;;;25.35;;
30307;SDS011;17114;52.314;8.910;2022-09-29T05:10:20;47.47;;;26.85;;
30307;SDS011;17114;52.314;8.910;2022-09-29T05:12:47;45.92;;;27.73;;
30307;SDS011;17114;52.314;8.910;2022-09-29T05:15:16;44.25;;;26.52;;
30307;SDS011;17114;52.314;8.910;2022-09-29T05:17:50;41.78;;;25.40;;
30307;SDS011;17114;52.314;8.910;2022-09-29T05:20:17;39.28;;;23.92;;
30307;SDS011;17114;52.314;8.910;2022-09-29T05:22:43;39.78;;;25.05;;
30307;SDS011;17114;52.314;8.910;2022-09-29T05:25:10;47.03;;;27.90;;
30307;SDS011;17114;52.314;8.910;2022-09-29T05:27:37;46.55;;;26.40;;
30307;SDS011;17114;52.314;8.910;2022-09-29T05:30:04;51.65;;;28.80;;
30307;SDS011;17114;52.314;8.910;2022-09-29T05:32:31;50.30;;;28.30;;
30307;SDS011;17114;52.314;8.910;2022-09-29T05:34:58;54.65;;;28.83;;
30307;SDS011;17114;52.314;8.910;2022-09-29T05:37:26;49.35;;;26.63;;
30307;SDS011;17114;52.314;8.910;2022-09-29T05:39:53;51.67;;;27.38;;
30307;SDS011;17114;52.314;8.910;2022-09-29T05:42:20;53.20;;;28.60;;
30307;SDS011;17114;52.314;8.910;2022-09-29T05:44:46;52.22;;;29.13;;
30307;SDS011;17114;52.314;8.910;2022-09-29T05:47:13;44.58;;;25.45;;
30307;SDS011;17114;52.314;8.910;2022-09-29T05:49:40;39.75;;;23.88;;
30307;SDS011;17114;52.314;8.910;2022-09-29T05:52:07;40.40;;;23.85;;
30307;SDS011;17114;52.314;8.910;2022-09-29T05:54:34;43.72;;;26.55;;
30307;SDS011;17114;52.314;8.910;2022-09-29T05:57:01;41.42;;;25.83;;
30307;SDS011;17114;52.314;8.910;2022-09-29T05:59:28;44.05;;;24.98;;
30307;SDS011;17114;52.314;8.910;2022-09-29T06:01:55;45.60;;;25.63;;
30307;SDS011;17114;52.314;8.910;2022-09-29T06:04:22;52.78;;;27.85;;
30307;SDS011;17114;52.314;8.910;2022-09-29T06:06:49;52.00;;;27.67;;
30307;SDS011;17114;52.314;8.910;2022-09-29T06:09:16;50.60;;;28.88;;
30307;SDS011;17114;52.314;8.910;2022-09-29T06:11:43;56.17;;;30.20;;
30307;SDS011;17114;52.314;8.910;2022-09-29T06:14:10;56.88;;;31.15;;
30307;SDS011;17114;52.314;8.910;2022-09-29T06:16:37;56.30;;;31.38;;
30307;SDS011;17114;52.314;8.910;2022-09-29T06:19:04;64.13;;;32.60;;
30307;SDS011;17114;52.314;8.910;2022-09-29T06:21:31;59.40;;;33.33;;
30307;SDS011;17114;52.314;8.910;2022-09-29T06:24:01;64.55;;;33.63;;
30307;SDS011;17114;52.314;8.910;2022-09-29T06:26:28;74.80;;;37.70;;
30307;SDS011;17114;52.314;8.910;2022-09-29T06:28:56;70.38;;;37.05;;
30307;SDS011;17114;52.314;8.910;2022-09-29T06:31:25;81.18;;;40.15;;
30307;SDS011;17114;52.314;8.910;2022-09-29T06:33:58;68.47;;;37.88;;
30307;SDS011;17114;52.314;8.910;2022-09-29T06:39:22;57.45;;;32.78;;
30307;SDS011;17114;52.314;8.910;2022-09-29T06:41:50;60.33;;;32.08;;
30307;SDS011;17114;52.314;8.910;2022-09-29T06:44:24;51.17;;;29.33;;
30307;SDS011;17114;52.314;8.910;2022-09-29T06:46:59;45.60;;;28.50;;
30307;SDS011;17114;52.314;8.910;2022-09-29T06:49:32;42.53;;;25.90;;
30307;SDS011;17114;52.314;8.910;2022-09-29T06:51:59;41.90;;;25.65;;
30307;SDS011;17114;52.314;8.910;2022-09-29T06:54:43;33.70;;;22.77;;
30307;SDS011;17114;52.314;8.910;2022-09-29T06:57:11;36.20;;;21.70;;
30307;SDS011;17114;52.314;8.910;2022-09-29T06:59:39;32.92;;;21.23;;
30307;SDS011;17114;52.314;8.910;2022-09-29T07:02:08;31.42;;;21.05;;
30307;SDS011;17114;52.314;8.910;2022-09-29T07:04:45;31.63;;;20.27;;
30307;SDS011;17114;52.314;8.910;2022-09-29T07:07:14;34.13;;;19.55;;
30307;SDS011;17114;52.314;8.910;2022-09-29T07:09:45;30.67;;;20.00;;
30307;SDS011;17114;52.314;8.910;2022-09-29T07:12:12;30.40;;;19.30;;
30307;SDS011;17114;52.314;8.910;2022-09-29T07:14:39;29.45;;;19.20;;
30307;SDS011;17114;52.314;8.910;2022-09-29T07:17:06;26.45;;;17.95;;
30307;SDS011;17114;52.314;8.910;2022-09-29T07:19:34;29.50;;;19.27;;
30307;SDS011;17114;52.314;8.910;2022-09-29T07:22:01;31.13;;;19.52;;
30307;SDS011;17114;52.314;8.910;2022-09-29T07:24:29;29.90;;;18.80;;
30307;SDS011;17114;52.314;8.910;2022-09-29T07:26:57;28.25;;;18.33;;
30307;SDS011;17114;52.314;8.910;2022-09-29T07:29:24;27.35;;;18.38;;
30307;SDS011;17114;52.314;8.910;2022-09-29T07:31:51;28.67;;;18.65;;
30307;SDS011;17114;52.314;8.910;2022-09-29T07:34:20;27.20;;;18.80;;
30307;SDS011;17114;52.314;8.910;2022-09-29T07:36:48;29.30;;;19.13;;
30307;SDS011;17114;52.314;8.910;2022-09-29T07:39:15;29.65;;;18.67;;
30307;SDS011;17114;52.314;8.910;2022-09-29T07:41:43;27.75;;;17.67;;
30307;SDS011;17114;52.314;8.910;2022-09-29T07:44:10;28.30;;;18.77;;
30307;SDS011;17114;52.314;8.910;2022-09-29T07:46:37;31.52;;;18.70;;
30307;SDS011;17114;52.314;8.910;2022-09-29T07:49:05;30.92;;;18.40;;
30307;SDS011;17114;52.314;8.910;2022-09-29T07:51:32;27.48;;;17.42;;
30307;SDS011;17114;52.314;8.910;2022-09-29T07:54:00;28.65;;;17.23;;
30307;SDS011;17114;52.314;8.910;2022-09-29T07:56:29;31.58;;;18.65;;
30307;SDS011;17114;52.314;8.910;2022-09-29T07:58:56;28.08;;;17.83;;
30307;SDS011;17114;52.314;8.910;2022-09-29T08:01:30;29.70;;;17.58;;
30307;SDS011;17114;52.314;8.910;2022-09-29T08:03:58;27.83;;;17.52;;
30307;SDS011;17114;52.314;8.910;2022-09-29T08:06:27;25.05;;;17.55;;
30307;SDS011;17114;52.314;8.910;2022-09-29T08:08:58;27.95;;;17.63;;
30307;SDS011;17114;52.314;8.910;2022-09-29T08:11:31;28.02;;;18.00;;
30307;SDS011;17114;52.314;8.910;2022-09-29T08:13:59;25.48;;;17.38;;
30307;SDS011;17114;52.314;8.910;2022-09-29T08:16:26;29.88;;;17.92;;
30307;SDS011;17114;52.314;8.910;2022-09-29T08:18:53;26.95;;;17.55;;
30307;SDS011;17114;52.314;8.910;2022-09-29T08:21:21;27.55;;;17.02;;
30307;SDS011;17114;52.314;8.910;2022-09-29T08:23:50;30.48;;;17.45;;
30307;SDS011;17114;52.314;8.910;2022-09-29T08:26:20;29.33;;;17.73;;
30307;SDS011;17114;52.314;8.910;2022-09-29T08:29:08;25.20;;;16.70;;
30307;SDS011;17114;52.314;8.910;2022-09-29T08:31:42;27.38;;;16.08;;
30307;SDS011;17114;52.314;8.910;2022-09-29T08:34:12;23.00;;;15.27;;
30307;SDS011;17114;52.314;8.910;2022-09-29T08:36:44;25.55;;;15.23;;
30307;SDS011;17114;52.314;8.910;2022-09-29T08:39:11;23.88;;;15.35;;
30307;SDS011;17114;52.314;8.910;2022-09-29T08:42:04;22.08;;;15.05;;
30307;SDS011;17114;52.314;8.910;2022-09-29T08:44:39;22.65;;;15.10;;
30307;SDS011;17114;52.314;8.910;2022-09-29T08:52:27;21.13;;;13.90;;
30307;SDS011;17114;52.314;8.910;2022-09-29T08:57:47;20.85;;;13.77;;
30307;SDS011;17114;52.314;8.910;2022-09-29T09:00:20;22.08;;;13.43;;
30307;SDS011;17114;52.314;8.910;2022-09-29T09:03:13;18.98;;;13.98;;
30307;SDS011;17114;52.314;8.910;2022-09-29T09:06:13;17.95;;;12.57;;
30307;SDS011;17114;52.314;8.910;2022-09-29T09:22:49;19.35;;;14.77;;
30307;SDS011;17114;52.314;8.910;2022-09-29T09:25:26;17.83;;;13.55;;
30307;SDS011;17114;52.314;8.910;2022-09-29T09:33:38;19.85;;;15.07;;
30307;SDS011;17114;52.314;8.910;2022-09-29T09:41:30;20.08;;;14.02;;
30307;SDS011;17114;52.314;8.910;2022-09-29T09:44:03;18.50;;;13.13;;
30307;SDS011;17114;52.314;8.910;2022-09-29T09:46:38;21.17;;;12.90;;
30307;SDS011;17114;52.314;8.910;2022-09-29T09:52:17;14.38;;;10.93;;
30307;SDS011;17114;52.314;8.910;2022-09-29T09:55:00;15.02;;;11.90;;
30307;SDS011;17114;52.314;8.910;2022-09-29T09:57:39;15.05;;;11.68;;
30307;SDS011;17114;52.314;8.910;2022-09-29T10:02:55;15.20;;;10.60;;
30307;SDS011;17114;52.314;8.910;2022-09-29T10:05:31;13.05;;;9.00;;
30307;SDS011;17114;52.314;8.910;2022-09-29T10:08:02;17.17;;;10.60;;
30307;SDS011;17114;52.314;8.910;2022-09-29T10:10:40;13.60;;;10.15;;
30307;SDS011;17114;52.314;8.910;2022-09-29T10:13:27;15.30;;;10.18;;
30307;SDS011;17114;52.314;8.910;2022-09-29T10:18:43;17.35;;;10.65;;
30307;SDS011;17114;52.314;8.910;2022-09-29T10:24:19;14.75;;;10.20;;
30307;SDS011;17114;52.314;8.910;2022-09-29T10:26:54;11.98;;;8.85;;
30307;SDS011;17114;52.314;8.910;2022-09-29T10:32:21;13.63;;;9.02;;
30307;SDS011;17114;52.314;8.910;2022-09-29T10:35:14;13.27;;;9.90;;
30307;SDS011;17114;52.314;8.910;2022-09-29T10:37:45;12.95;;;8.25;;
30307;SDS011;17114;52.314;8.910;2022-09-29T10:40:17;13.80;;;8.10;;
30307;SDS011;17114;52.314;8.910;2022-09-29T10:42:49;11.93;;;8.63;;
30307;SDS011;17114;52.314;8.910;2022-09-29T10:50:25;10.52;;;7.70;;
30307;SDS011;17114;52.314;8.910;2022-09-29T10:53:03;13.05;;;8.13;;
30307;SDS011;17114;52.314;8.910;2022-09-29T10:55:52;11.10;;;7.65;;
30307;SDS011;17114;52.314;8.910;2022-09-29T10:58:39;11.55;;;7.93;;
30307;SDS011;17114;52.314;8.910;2022-09-29T11:01:22;14.18;;;7.72;;
30307;SDS011;17114;52.314;8.910;2022-09-29T11:04:02;12.27;;;8.63;;
30307;SDS011;17114;52.314;8.910;2022-09-29T11:06:41;11.98;;;8.32;;
30307;SDS011;17114;52.314;8.910;2022-09-29T11:14:24;12.07;;;8.05;;
30307;SDS011;17114;52.314;8.910;2022-09-29T11:16:55;12.02;;;7.40;;
30307;SDS011;17114;52.314;8.910;2022-09-29T11:19:25;9.60;;;6.85;;
30307;SDS011;17114;52.314;8.910;2022-09-29T11:22:15;9.07;;;5.72;;
30307;SDS011;17114;52.314;8.910;2022-09-29T11:25:19;10.65;;;6.78;;
30307;SDS011;17114;52.314;8.910;2022-09-29T11:42:06;7.35;;;4.65;;
30307;SDS011;17114;52.314;8.910;2022-09-29T11:47:43;7.03;;;5.07;;
30307;SDS011;17114;52.314;8.910;2022-09-29T11:53:05;7.70;;;3.92;;
30307;SDS011;17114;52.314;8.910;2022-09-29T12:01:11;6.50;;;4.03;;
30307;SDS011;17114;52.314;8.910;2022-09-29T12:15:05;7.65;;;4.78;;
30307;SDS011;17114;52.314;8.910;2022-09-29T12:17:53;5.53;;;3.92;;
30307;SDS011;17114;52.314;8.910;2022-09-29T12:20:27;6.97;;;4.72;;
30307;SDS011;17114;52.314;8.910;2022-09-29T12:22:58;10.57;;;5.25;;
30307;SDS011;17114;52.314;8.910;2022-09-29T12:25:32;7.43;;;5.18;;
30307;SDS011;17114;52.314;8.910;2022-09-29T12:28:10;9.02;;;5.53;;
30307;SDS011;17114;52.314;8.910;2022-09-29T12:30:48;6.43;;;4.70;;
30307;SDS011;17114;52.314;8.910;2022-09-29T12:33:21;5.88;;;4.15;;
30307;SDS011;17114;52.314;8.910;2022-09-29T12:36:12;7.03;;;4.93;;
30307;SDS011;17114;52.314;8.910;2022-09-29T12:39:09;11.68;;;4.70;;
30307;SDS011;17114;52.314;8.910;2022-09-29T12:41:40;7.60;;;4.72;;
30307;SDS011;17114;52.314;8.910;2022-09-29T12:44:28;8.93;;;5.15;;
30307;SDS011;17114;52.314;8.910;2022-09-29T12:47:04;10.77;;;5.65;;
30307;SDS011;17114;52.314;8.910;2022-09-29T12:52:25;8.25;;;4.95;;
30307;SDS011;17114;52.314;8.910;2022-09-29T12:55:01;7.20;;;5.38;;
30307;SDS011;17114;52.314;8.910;2022-09-29T12:57:37;7.50;;;4.10;;
30307;SDS011;17114;52.314;8.910;2022-09-29T13:08:54;5.15;;;2.95;;
30307;SDS011;17114;52.314;8.910;2022-09-29T13:14:37;4.55;;;2.55;;
30307;SDS011;17114;52.314;8.910;2022-09-29T13:28:52;4.57;;;2.78;;
30307;SDS011;17114;52.314;8.910;2022-09-29T13:31:28;4.60;;;2.88;;
30307;SDS011;17114;52.314;8.910;2022-09-29T13:34:01;5.85;;;3.65;;
30307;SDS011;17114;52.314;8.910;2022-09-29T13:36:39;6.07;;;3.10;;
30307;SDS011;17114;52.314;8.910;2022-09-29T13:39:18;6.65;;;2.80;;
30307;SDS011;17114;52.314;8.910;2022-09-29T13:41:48;7.10;;;3.03;;
30307;SDS011;17114;52.314;8.910;2022-09-29T13:44:25;3.67;;;2.50;;
30307;SDS011;17114;52.314;8.910;2022-09-29T13:46:54;5.82;;;2.97;;
30307;SDS011;17114;52.314;8.910;2022-09-29T13:49:23;2.97;;;2.33;;
30307;SDS011;17114;52.314;8.910;2022-09-29T13:51:59;2.90;;;1.80;;
30307;SDS011;17114;52.314;8.910;2022-09-29T13:54:37;2.63;;;1.80;;
30307;SDS011;17114;52.314;8.910;2022-09-29T13:59:38;7.40;;;2.60;;
30307;SDS011;17114;52.314;8.910;2022-09-29T14:04:55;3.05;;;2.00;;
30307;SDS011;17114;52.314;8.910;2022-09-29T14:13:02;2.50;;;1.83;;
30307;SDS011;17114;52.314;8.910;2022-09-29T14:15:34;2.20;;;1.75;;
30307;SDS011;17114;52.314;8.910;2022-09-29T14:18:16;4.30;;;1.85;;
30307;SDS011;17114;52.314;8.910;2022-09-29T14:20:58;3.67;;;1.63;;
30307;SDS011;17114;52.314;8.910;2022-09-29T14:29:24;4.70;;;2.20;;
30307;SDS011;17114;52.314;8.910;2022-09-29T14:31:55;2.95;;;1.52;;
30307;SDS011;17114;52.314;8.910;2022-09-29T14:34:28;3.97;;;1.90;;
30307;SDS011;17114;52.314;8.910;2022-09-29T14:36:59;3.45;;;1.65;;
30307;SDS011;17114;52.314;8.910;2022-09-29T14:39:26;5.18;;;1.83;;
30307;SDS011;17114;52.314;8.910;2022-09-29T14:41:54;4.57;;;1.70;;
30307;SDS011;17114;52.314;8.910;2022-09-29T14:44:23;3.25;;;2.00;;
30307;SDS011;17114;52.314;8.910;2022-09-29T14:48:00;2.35;;;1.40;;
30307;SDS011;17114;52.314;8.910;2022-09-29T14:50:48;3.65;;;1.80;;
30307;SDS011;17114;52.314;8.910;2022-09-29T14:53:45;3.80;;;1.67;;
30307;SDS011;17114;52.314;8.910;2022-09-29T14:56:46;2.65;;;1.52;;
30307;SDS011;17114;52.314;8.910;2022-09-29T14:59:38;4.28;;;2.00;;
30307;SDS011;17114;52.314;8.910;2022-09-29T15:02:18;3.83;;;1.77;;
30307;SDS011;17114;52.314;8.910;2022-09-29T15:04:48;4.53;;;1.60;;
30307;SDS011;17114;52.314;8.910;2022-09-29T15:07:16;5.50;;;1.80;;
30307;SDS011;17114;52.314;8.910;2022-09-29T15:09:52;3.40;;;1.98;;
30307;SDS011;17114;52.314;8.910;2022-09-29T15:12:25;5.50;;;2.13;;
30307;SDS011;17114;52.314;8.910;2022-09-29T15:14:54;3.92;;;1.90;;
30307;SDS011;17114;52.314;8.910;2022-09-29T15:25:31;3.60;;;1.88;;
30307;SDS011;17114;52.314;8.910;2022-09-29T15:28:02;2.95;;;1.60;;
30307;SDS011;17114;52.314;8.910;2022-09-29T15:30:35;4.75;;;1.67;;
30307;SDS011;17114;52.314;8.910;2022-09-29T15:33:24;4.60;;;2.15;;
30307;SDS011;17114;52.314;8.910;2022-09-29T15:41:02;5.07;;;2.17;;
30307;SDS011;17114;52.314;8.910;2022-09-29T15:43:52;5.10;;;2.13;;
30307;SDS011;17114;52.314;8.910;2022-09-29T15:46:21;3.88;;;2.17;;
30307;SDS011;17114;52.314;8.910;2022-09-29T15:49:05;2.58;;;1.73;;
30307;SDS011;17114;52.314;8.910;2022-09-29T15:51:56;4.32;;;1.70;;
30307;SDS011;17114;52.314;8.910;2022-09-29T15:54:27;3.72;;;1.70;;
30307;SDS011;17114;52.314;8.910;2022-09-29T15:57:00;2.13;;;1.23;;
30307;SDS011;17114;52.314;8.910;2022-09-29T15:59:47;4.25;;;1.52;;
30307;SDS011;17114;52.314;8.910;2022-09-29T16:02:35;2.13;;;1.60;;
30307;SDS011;17114;52.314;8.910;2022-09-29T16:05:10;3.28;;;1.58;;
30307;SDS011;17114;52.314;8.910;2022-09-29T16:07:48;3.85;;;1.58;;
30307;SDS011;17114;52.314;8.910;2022-09-29T16:10:28;11.40;;;2.42;;
30307;SDS011;17114;52.314;8.910;2022-09-29T16:13:02;3.57;;;1.70;;
30307;SDS011;17114;52.314;8.910;2022-09-29T16:15:34;4.72;;;2.10;;
30307;SDS011;17114;52.314;8.910;2022-09-29T16:18:06;3.35;;;2.03;;
30307;SDS011;17114;52.314;8.910;2022-09-29T16:20:36;4.18;;;2.10;;
30307;SDS011;17114;52.314;8.910;2022-09-29T16:23:07;2.67;;;1.70;;
30307;SDS011;17114;52.314;8.910;2022-09-29T16:28:36;4.50;;;2.10;;
30307;SDS011;17114;52.314;8.910;2022-09-29T16:31:09;4.55;;;1.80;;
30307;SDS011;17114;52.314;8.910;2022-09-29T16:33:45;7.53;;;2.10;;
30307;SDS011;17114;52.314;8.910;2022-09-29T16:36:25;3.15;;;1.70;;
30307;SDS011;17114;52.314;8.910;2022-09-29T16:38:53;5.85;;;2.15;;
30307;SDS011;17114;52.314;8.910;2022-09-29T16:41:28;3.67;;;1.83;;
30307;SDS011;17114;52.314;8.910;2022-09-29T16:49:27;5.67;;;1.80;;
30307;SDS011;17114;52.314;8.910;2022-09-29T16:52:00;3.28;;;1.80;;
30307;SDS011;17114;52.314;8.910;2022-09-29T16:54:41;8.20;;;1.90;;
30307;SDS011;17114;52.314;8.910;2022-09-29T16:57:23;4.80;;;1.70;;
30307;SDS011;17114;52.314;8.910;2022-09-29T17:02:34;3.83;;;2.22;;
30307;SDS011;17114;52.314;8.910;2022-09-29T17:05:01;3.50;;;2.40;;
30307;SDS011;17114;52.314;8.910;2022-09-29T17:07:30;6.03;;;2.95;;
30307;SDS011;17114;52.314;8.910;2022-09-29T17:09:58;7.40;;;2.90;;
30307;SDS011;17114;52.314;8.910;2022-09-29T17:12:27;4.95;;;2.95;;
30307;SDS011;17114;52.314;8.910;2022-09-29T17:14:55;5.28;;;3.47;;
30307;SDS011;17114;52.314;8.910;2022-09-29T17:17:23;7.15;;;4.05;;
30307;SDS011;17114;52.314;8.910;2022-09-29T17:19:52;6.70;;;3.75;;
30307;SDS011;17114;52.314;8.910;2022-09-29T17:22:28;9.02;;;4.47;;
30307;SDS011;17114;52.314;8.910;2022-09-29T17:24:57;8.32;;;4.05;;
30307;SDS011;17114;52.314;8.910;2022-09-29T17:27:24;10.48;;;4.18;;
30307;SDS011;17114;52.314;8.910;2022-09-29T17:30:12;7.40;;;3.85;;
30307;SDS011;17114;52.314;8.910;2022-09-29T17:32:48;8.80;;;4.40;;
30307;SDS011;17114;52.314;8.910;2022-09-29T17:35:20;7.97;;;4.30;;
30307;SDS011;17114;52.314;8.910;2022-09-29T17:37:52;7.47;;;4.70;;
30307;SDS011;17114;52.314;8.910;2022-09-29T17:43:01;8.95;;;4.93;;
30307;SDS011;17114;52.314;8.910;2022-09-29T17:45:28;10.65;;;5.68;;
30307;SDS011;17114;52.314;8.910;2022-09-29T17:47:57;10.02;;;6.40;;
30307;SDS011;17114;52.314;8.910;2022-09-29T17:50:25;7.63;;;5.30;;
30307;SDS011;17114;52.314;8.910;2022-09-29T17:52:55;10.13;;;5.95;;
30307;SDS011;17114;52.314;8.910;2022-09-29T17:55:25;10.23;;;6.47;;
30307;SDS011;17114;52.314;8.910;2022-09-29T17:57:53;12.88;;;6.95;;
30307;SDS011;17114;52.314;8.910;2022-09-29T18:00:24;13.43;;;7.95;;
30307;SDS011;17114;52.314;8.910;2022-09-29T18:02:54;24.30;;;14.32;;
30307;SDS011;17114;52.314;8.910;2022-09-29T18:05:26;15.68;;;9.50;;
30307;SDS011;17114;52.314;8.910;2022-09-29T18:07:55;12.82;;;8.75;;
30307;SDS011;17114;52.314;8.910;2022-09-29T18:10:27;12.68;;;8.48;;
30307;SDS011;17114;52.314;8.910;2022-09-29T18:12:56;14.32;;;8.55;;
30307;SDS011;17114;52.314;8.910;2022-09-29T18:15:24;17.27;;;9.25;;
30307;SDS011;17114;52.314;8.910;2022-09-29T18:17:58;14.20;;;9.18;;
30307;SDS011;17114;52.314;8.910;2022-09-29T18:20:28;11.68;;;7.80;;
30307;SDS011;17114;52.314;8.910;2022-09-29T18:22:57;11.10;;;7.35;;
30307;SDS011;17114;52.314;8.910;2022-09-29T18:25:26;12.77;;;7.90;;